createdAt,value
2018-08-08T04:41:37.011Z,28.80
2018-08-08T04:44:11.476Z,26.90
2018-08-08T04:46:46.051Z,26.80
2018-08-08T04:49:21.882Z,26.80
2018-08-08T04:51:56.423Z,26.80
2018-08-08T04:54:32.211Z,26.80
2018-08-08T04:59:40.919Z,26.90
2018-08-08T05:02:16.899Z,27.00
2018-08-08T05:04:53.153Z,27.10
2018-08-08T05:07:29.073Z,27.20
2018-08-08T05:10:04.264Z,27.10
2018-08-08T05:12:40.754Z,27.10
2018-08-08T05:15:17.643Z,27.20
2018-08-08T05:17:52.561Z,27.30
2018-08-08T05:20:27.014Z,27.00
2018-08-08T05:23:01.443Z,27.00
2018-08-08T05:25:35.839Z,27.10
2018-08-08T05:28:11.408Z,27.30
2018-08-08T05:33:20.423Z,27.40
2018-08-08T05:38:36.039Z,27.50
2018-08-08T05:41:12.000Z,27.50
2018-08-08T05:43:46.399Z,27.10
2018-08-08T05:48:57.859Z,27.00
2018-08-08T05:51:32.599Z,26.80
2018-08-08T05:54:08.396Z,27.20
2018-08-08T05:56:43.312Z,27.00
2018-08-08T05:59:17.787Z,27.20
2018-08-08T06:01:54.119Z,26.50
2018-08-08T06:04:28.535Z,26.60
2018-08-08T06:07:10.904Z,26.60
2018-08-08T06:09:45.356Z,26.70
2018-08-08T06:12:21.177Z,27.10
2018-08-08T06:14:57.039Z,26.80
2018-08-08T06:17:32.463Z,26.50
2018-08-08T06:20:10.373Z,26.40
2018-08-08T06:25:20.809Z,26.70
2018-08-08T06:30:30.782Z,27.00
2018-08-08T06:33:05.528Z,27.00
2018-08-08T06:35:40.004Z,27.10
2018-08-08T06:38:15.744Z,27.50
2018-08-08T06:40:52.089Z,27.40
2018-08-08T06:43:26.780Z,27.60
2018-08-08T06:46:02.676Z,27.50
2018-08-08T06:51:13.346Z,27.50
2018-08-08T06:53:48.814Z,27.30
2018-08-08T06:56:23.490Z,27.60
2018-08-08T06:58:58.152Z,27.80
2018-08-08T07:35:05.339Z,28.00
2018-08-08T07:45:28.220Z,28.60
2018-08-08T07:48:04.243Z,29.50
2018-08-08T08:01:08.415Z,29.80
2018-08-08T08:03:43.008Z,30.70
2018-08-08T08:06:26.723Z,30.70
2018-08-08T08:09:03.096Z,30.10
2018-08-08T08:11:39.369Z,29.70
2018-08-08T08:14:14.955Z,29.90
2018-08-08T08:39:01.512Z,30.30
2018-08-08T09:57:25.592Z,30.70
2018-08-08T10:00:00.374Z,29.70
2018-08-08T10:02:38.615Z,29.80
2018-08-08T10:05:13.072Z,29.50
2018-08-08T10:07:53.140Z,29.60
2018-08-08T10:10:27.928Z,29.50
2018-08-08T10:13:02.724Z,29.50
2018-08-08T10:15:37.615Z,29.20
2018-08-08T10:18:12.147Z,29.10
2018-08-08T10:20:46.724Z,28.50
2018-08-08T10:23:21.155Z,28.20
2018-08-08T10:25:55.732Z,28.10
2018-08-08T10:28:31.773Z,27.80
2018-08-08T10:59:34.681Z,28.10
2018-08-08T11:30:33.214Z,28.30
2018-08-08T11:33:08.059Z,29.20
2018-08-08T11:35:42.303Z,29.40
2018-08-08T11:38:18.127Z,29.40
2018-08-08T11:40:54.408Z,29.40
2018-08-08T11:53:51.220Z,29.50
2018-08-08T11:56:25.547Z,29.50
2018-08-08T11:59:01.518Z,29.60
2018-08-08T12:17:10.016Z,29.40
2018-08-08T12:19:44.288Z,30.00
